Airfield :







YOU CAN JOIN US ON...

 
LOGIN :

Register | Disclaimer

   EN    FR    IT 

 









Legend :    VFR   Marginal VFR   IFR   Intensive IFR   Very Intensive IFR
Visi :
Ceiling :
>= 8 km
>= 3000ft
5 to 8 km
1000 to 3000 ft
1500m to 5 km
500 to 1000 ft
800 to 1500m
200 to 500 ft
< 800m
< 200 ft
Symbols :   Thunderstorms  Fog  Heavy snow  Heavy precipitations  Wind > 20 kt







- Airport Elevation : 68 ft
- IATA code : YFC


CYFC - Fredericton

CURRENT METAR :
  • 221258Z AUTO 04008KT 5SM RA -UP OVC011 01/M02 A2970 RMK SLP060

EXPIRED METARs :
  • 221200Z AUTO 03005KT 9SM BKN013 OVC021 01/M03 A2975 RMK SLP078
  • 221100Z AUTO 02007KT 9SM OVC015 M00/M04 A2981 RMK PRESFR SLP097
  • 221000Z AUTO 07005KT 9SM OVC019 M01/M03 A2984 RMK SLP107

TAF TAF CYFC
Valid from the 22 at 12:00 until the 23 at 00:00 UTC


221139Z 2212/2224 04007KT P6SM FEW008 OVC015
TEMPO 2212/2213 5SM -FZDZ BR BKN008 OVC015
FM221300 03010KT 3SM -FZRA BR BKN008 OVC012
TEMPO 2213/2216 6SM BR OVC012
FM221600 04015KT 11/2SM RA BR OVC004
BECMG 2216/2218 04015G25KT
FM222100 05015G25KT 3SM -RA BR OVC007
BECMG 2222/2224 08012G22KT RMK FCST BASED ON AUTO OBS. NXT FCST BY 221800Z
CZQM FIR / North America



MET'MAP, your aeronautical weather chart ! - Copyright ORBIFLY December 2007 - Disclaimer

ORBIFLY MET'MAP TEAM :

Programming & Development : Alexandra Zaïnal
Concept & Development : Baudouin d'Aumeries
Co-Development & Prog : Marc-Olivier Méhu
Technical & hardware support : Manuel Goepfert

Contact : metmap@orbifly.com




SOURCES & CREDITS :

   NOAA